createdAt,value
2019-03-13T00:01:17.099Z,7.37
2019-03-13T00:03:45.809Z,8.67
2019-03-13T00:06:15.129Z,9.67
2019-03-13T00:08:44.246Z,14.40
2019-03-13T00:11:13.076Z,22.83
2019-03-13T00:13:41.958Z,29.37
2019-03-13T00:16:10.768Z,13.77
2019-03-13T00:18:39.486Z,12.90
2019-03-13T00:21:08.357Z,20.20
2019-03-13T00:23:37.079Z,18.10
2019-03-13T00:26:05.804Z,15.23
2019-03-13T00:28:34.950Z,11.57
2019-03-13T00:31:03.675Z,13.60
2019-03-13T00:33:32.397Z,14.23
2019-03-13T00:36:01.216Z,11.37
2019-03-13T00:38:29.922Z,9.37
2019-03-13T00:40:58.636Z,9.10
2019-03-13T00:43:27.419Z,8.23
2019-03-13T00:45:56.135Z,13.50
2019-03-13T00:48:24.855Z,19.77
2019-03-13T00:50:54.009Z,24.80
2019-03-13T00:53:22.735Z,22.50
2019-03-13T00:55:51.455Z,19.53
2019-03-13T00:58:20.331Z,18.43
2019-03-13T01:00:53.609Z,12.50
2019-03-13T01:03:30.157Z,13.93
2019-03-13T01:06:09.474Z,16.17
2019-03-13T01:08:38.436Z,27.97
2019-03-13T01:11:07.167Z,38.53
2019-03-13T01:13:35.881Z,41.27
2019-03-13T01:16:05.063Z,53.43
2019-03-13T01:18:33.783Z,56.47
2019-03-13T01:21:02.505Z,61.53
2019-03-13T01:23:31.627Z,63.07
2019-03-13T01:26:00.351Z,73.80
2019-03-13T01:28:29.072Z,89.10
2019-03-13T01:31:08.367Z,76.50
2019-03-13T01:33:37.097Z,61.27
2019-03-13T01:36:07.235Z,56.33
2019-03-13T01:38:36.165Z,50.00
2019-03-13T01:41:04.988Z,46.83
2019-03-13T01:43:33.716Z,43.07
2019-03-13T01:46:02.577Z,40.13
2019-03-13T01:48:31.289Z,43.27
2019-03-13T01:51:00.013Z,36.83
2019-03-13T01:53:28.781Z,41.97
2019-03-13T01:55:57.518Z,169.20
2019-03-13T01:58:26.256Z,191.33
2019-03-13T02:00:55.045Z,205.47
2019-03-13T02:03:23.770Z,180.97
2019-03-13T02:05:52.506Z,187.23
2019-03-13T02:08:21.390Z,176.60
2019-03-13T02:10:50.123Z,164.23
2019-03-13T02:13:18.853Z,137.03
2019-03-13T02:15:47.760Z,109.23
2019-03-13T02:18:16.449Z,98.73
2019-03-13T02:20:45.181Z,72.07
2019-03-13T02:23:13.997Z,58.03
2019-03-13T02:25:42.717Z,47.40
2019-03-13T02:28:11.446Z,44.73
2019-03-13T02:30:40.342Z,33.13
2019-03-13T02:33:09.067Z,35.07
2019-03-13T02:35:37.805Z,29.53
2019-03-13T02:38:06.572Z,20.57
2019-03-13T02:40:35.361Z,18.47
2019-03-13T02:43:04.180Z,16.40
2019-03-13T02:45:32.976Z,16.77
2019-03-13T02:48:01.704Z,18.27
2019-03-13T02:50:30.438Z,20.43
2019-03-13T02:52:59.319Z,20.37
2019-03-13T02:55:28.055Z,19.50
2019-03-13T02:57:56.771Z,18.53
2019-03-13T03:00:39.077Z,23.23
2019-03-13T03:03:27.350Z,22.93
2019-03-13T03:05:57.196Z,24.00
2019-03-13T03:08:25.949Z,20.90
2019-03-13T03:10:54.678Z,15.53
2019-03-13T03:13:23.770Z,14.47
2019-03-13T03:15:52.486Z,15.43
2019-03-13T03:18:21.209Z,14.47
2019-03-13T03:20:50.013Z,11.30
2019-03-13T03:23:18.734Z,11.40
2019-03-13T03:25:47.463Z,12.77
2019-03-13T03:28:16.213Z,11.97
2019-03-13T03:30:44.946Z,21.30
2019-03-13T03:33:13.667Z,16.27
2019-03-13T03:35:42.531Z,19.50
2019-03-13T03:38:11.255Z,15.83
2019-03-13T03:40:41.387Z,18.10
2019-03-13T03:43:10.565Z,18.27
2019-03-13T03:45:39.291Z,16.03
2019-03-13T03:48:08.007Z,17.93
2019-03-13T03:50:36.891Z,12.83
2019-03-13T03:53:05.621Z,13.83
2019-03-13T03:55:34.344Z,19.60
2019-03-13T03:58:04.426Z,17.07
2019-03-13T04:00:33.146Z,16.03
2019-03-13T04:03:01.860Z,20.80
2019-03-13T04:05:30.734Z,20.83
2019-03-13T04:07:59.462Z,16.27
2019-03-13T04:10:28.165Z,12.87
2019-03-13T04:12:56.938Z,12.07
2019-03-13T04:15:25.663Z,11.17
2019-03-13T04:17:54.388Z,11.93
2019-03-13T04:20:23.521Z,16.50
2019-03-13T04:22:52.250Z,17.87
2019-03-13T04:25:23.883Z,18.20
2019-03-13T04:27:52.762Z,14.67
2019-03-13T04:30:21.491Z,15.13
2019-03-13T04:32:50.219Z,12.37
2019-03-13T04:35:19.036Z,20.63
2019-03-13T04:37:47.739Z,15.67
2019-03-13T04:40:16.595Z,27.13
2019-03-13T04:42:45.455Z,18.40
2019-03-13T04:45:14.185Z,29.47
2019-03-13T04:47:42.851Z,31.13
2019-03-13T04:50:12.888Z,47.13
2019-03-13T04:52:41.590Z,33.60
2019-03-13T04:55:13.156Z,36.87
2019-03-13T04:57:41.995Z,41.97
2019-03-13T05:00:18.087Z,40.90
2019-03-13T05:02:47.202Z,46.87
2019-03-13T05:05:38.174Z,55.50
2019-03-13T05:08:06.914Z,38.80
2019-03-13T05:10:35.603Z,26.63
2019-03-13T05:13:04.310Z,39.80
2019-03-13T05:15:33.260Z,47.93
2019-03-13T05:18:01.942Z,60.10
2019-03-13T05:20:30.632Z,64.17
2019-03-13T05:22:59.707Z,63.17
2019-03-13T05:25:28.405Z,46.63
2019-03-13T05:27:57.089Z,66.47
2019-03-13T05:30:25.929Z,60.23
2019-03-13T05:32:54.603Z,57.93
2019-03-13T05:35:23.280Z,70.33
2019-03-13T05:37:52.028Z,44.43
2019-03-13T05:40:20.704Z,38.03
2019-03-13T05:42:49.384Z,16.57
2019-03-13T05:45:18.102Z,14.90
2019-03-13T05:47:46.782Z,12.93
2019-03-13T05:50:15.444Z,10.03
2019-03-13T05:52:44.160Z,11.07
2019-03-13T05:55:12.832Z,16.30
2019-03-13T05:57:41.507Z,27.03
2019-03-13T06:00:14.121Z,19.17
2019-03-13T06:02:42.797Z,16.70
2019-03-13T06:05:11.574Z,11.60
2019-03-13T06:07:40.311Z,15.33
2019-03-13T06:10:13.936Z,8.37
2019-03-13T06:12:42.610Z,15.77
2019-03-13T06:15:13.676Z,20.00
2019-03-13T06:17:42.357Z,20.10
2019-03-13T06:20:13.347Z,17.40
2019-03-13T06:22:42.169Z,15.93
2019-03-13T06:25:12.461Z,18.63
2019-03-13T06:27:41.132Z,20.37
2019-03-13T06:30:21.188Z,18.10
2019-03-13T06:32:49.863Z,23.90
2019-03-13T06:35:18.612Z,13.57
2019-03-13T06:37:47.721Z,13.90
2019-03-13T06:40:17.999Z,19.73
2019-03-13T06:42:46.780Z,17.40
2019-03-13T06:45:16.743Z,15.93
2019-03-13T06:47:45.531Z,13.67
2019-03-13T06:50:22.408Z,21.23
2019-03-13T06:52:51.075Z,8.50
2019-03-13T06:55:19.762Z,8.33
2019-03-13T06:57:48.618Z,10.57
2019-03-13T07:00:40.917Z,11.73
2019-03-13T07:03:23.727Z,13.13
2019-03-13T07:05:53.983Z,15.07
2019-03-13T07:08:30.200Z,8.83
2019-03-13T07:11:03.466Z,9.53
2019-03-13T07:13:39.635Z,11.97
2019-03-13T07:16:09.893Z,10.97
2019-03-13T07:18:49.109Z,18.13
2019-03-13T07:21:19.354Z,7.90
2019-03-13T07:23:52.593Z,12.03
2019-03-13T07:26:22.935Z,11.63
2019-03-13T07:28:53.185Z,13.57
2019-03-13T07:31:41.809Z,21.10
2019-03-13T07:34:28.275Z,18.53
2019-03-13T07:37:04.740Z,13.27
2019-03-13T07:39:47.041Z,12.73
2019-03-13T07:42:23.335Z,12.07
2019-03-13T07:44:59.378Z,9.20
2019-03-13T07:47:32.767Z,10.00
2019-03-13T07:50:03.006Z,9.50
2019-03-13T07:52:43.105Z,12.00
2019-03-13T07:55:13.347Z,7.07
2019-03-13T07:57:46.565Z,7.63
2019-03-13T08:00:16.890Z,6.07
2019-03-13T08:02:56.031Z,10.87
2019-03-13T08:05:42.418Z,7.67
2019-03-13T08:08:18.604Z,6.70
2019-03-13T08:11:07.665Z,21.73
2019-03-13T08:13:40.911Z,17.67
2019-03-13T08:16:29.487Z,25.10
2019-03-13T08:19:16.004Z,32.27
2019-03-13T08:21:49.166Z,10.57
2019-03-13T08:24:34.741Z,16.07
2019-03-13T08:27:05.097Z,11.57
2019-03-13T08:29:35.368Z,6.33
2019-03-13T08:32:08.362Z,4.73
2019-03-13T08:34:38.780Z,4.37
2019-03-13T08:37:17.920Z,3.83
2019-03-13T08:40:06.443Z,4.77
2019-03-13T08:42:36.815Z,15.57
2019-03-13T08:45:22.722Z,6.90
2019-03-13T08:48:04.879Z,4.70
2019-03-13T08:50:44.532Z,4.70
2019-03-13T08:53:14.828Z,3.80
2019-03-13T08:55:47.849Z,3.80
2019-03-13T08:58:18.208Z,3.43
2019-03-13T09:00:48.496Z,4.43
2019-03-13T09:03:36.844Z,3.20
2019-03-13T09:06:10.129Z,2.40
2019-03-13T09:08:56.988Z,2.30
2019-03-13T09:11:27.282Z,2.40
2019-03-13T09:14:01.496Z,5.10
2019-03-13T09:16:34.814Z,2.67
2019-03-13T09:19:08.089Z,2.70
2019-03-13T09:21:41.770Z,2.83
2019-03-13T09:24:14.782Z,4.20
2019-03-13T09:27:01.201Z,3.07
2019-03-13T09:29:31.671Z,2.63
2019-03-13T09:32:02.063Z,12.00
2019-03-13T09:34:41.288Z,2.13
2019-03-13T09:37:11.569Z,3.33
2019-03-13T09:39:53.885Z,2.63
2019-03-13T09:42:24.173Z,5.53
2019-03-13T09:45:06.458Z,16.07
2019-03-13T09:47:39.740Z,12.90
2019-03-13T09:50:12.749Z,3.73
2019-03-13T09:52:43.055Z,2.77
2019-03-13T09:55:22.713Z,2.77
2019-03-13T09:57:56.065Z,2.47
2019-03-13T10:00:26.354Z,3.00
2019-03-13T10:03:12.863Z,3.53
2019-03-13T10:05:58.413Z,3.70
2019-03-13T10:08:31.772Z,3.77
2019-03-13T10:11:02.060Z,3.33
2019-03-13T10:13:47.508Z,4.73
2019-03-13T10:16:17.799Z,5.03
2019-03-13T10:19:03.098Z,4.97
2019-03-13T10:21:49.959Z,3.20
2019-03-13T10:24:26.485Z,2.60
2019-03-13T10:26:56.776Z,2.70
2019-03-13T10:29:43.282Z,3.33
2019-03-13T10:32:13.675Z,2.60
2019-03-13T10:34:46.957Z,2.33
2019-03-13T10:37:17.306Z,4.00
2019-03-13T10:39:56.847Z,2.30
2019-03-13T10:42:30.286Z,2.30
2019-03-13T10:45:03.628Z,2.30
2019-03-13T10:47:33.919Z,2.53
2019-03-13T10:50:06.528Z,2.73
2019-03-13T10:52:53.025Z,2.27
2019-03-13T10:55:23.432Z,3.27
2019-03-13T10:58:09.933Z,1.90
2019-03-13T11:00:52.748Z,3.57
2019-03-13T11:03:32.089Z,5.40
2019-03-13T11:06:05.214Z,3.33
2019-03-13T11:08:44.678Z,2.70
2019-03-13T11:11:15.141Z,2.40
2019-03-13T11:13:45.428Z,2.47
2019-03-13T11:16:32.076Z,2.43
2019-03-13T11:19:02.367Z,4.33
2019-03-13T11:21:32.657Z,3.07
2019-03-13T11:24:09.474Z,3.03
2019-03-13T11:26:39.767Z,3.63
2019-03-13T11:29:10.057Z,2.03
2019-03-13T11:31:56.764Z,2.20
2019-03-13T11:34:33.368Z,2.87
2019-03-13T11:37:06.933Z,3.77
2019-03-13T11:39:43.188Z,2.87
2019-03-13T11:42:19.947Z,2.80
2019-03-13T11:44:52.996Z,13.37
2019-03-13T11:47:23.291Z,3.93
2019-03-13T11:50:09.032Z,3.43
2019-03-13T11:52:48.366Z,4.10
2019-03-13T11:55:18.886Z,3.23
2019-03-13T11:57:51.878Z,7.80
2019-03-13T12:00:34.254Z,5.57
2019-03-13T12:03:22.917Z,3.83
2019-03-13T12:05:56.035Z,3.03
2019-03-13T12:08:26.329Z,9.83
2019-03-13T12:11:09.182Z,4.87
2019-03-13T12:13:51.751Z,4.00
2019-03-13T12:16:31.220Z,5.23
2019-03-13T12:19:01.513Z,4.60
2019-03-13T12:21:48.323Z,3.43
2019-03-13T12:24:18.619Z,2.77
2019-03-13T12:27:07.459Z,2.50
2019-03-13T12:29:37.747Z,2.57
2019-03-13T12:32:10.739Z,6.33
2019-03-13T12:34:41.093Z,3.23
2019-03-13T12:37:28.040Z,3.77
2019-03-13T12:40:01.497Z,3.17
2019-03-13T12:42:47.062Z,3.00
2019-03-13T12:45:18.120Z,3.37
2019-03-13T12:48:16.120Z,4.33
2019-03-13T12:50:38.815Z,4.00
2019-03-13T12:53:18.149Z,6.20
2019-03-13T12:55:51.670Z,6.17
2019-03-13T12:58:31.010Z,7.93
2019-03-13T13:01:07.192Z,9.53
2019-03-13T13:03:37.514Z,12.27
2019-03-13T13:06:14.166Z,4.73
2019-03-13T13:08:50.605Z,9.17
2019-03-13T13:11:23.894Z,21.23
2019-03-13T13:14:00.096Z,6.93
2019-03-13T13:16:30.825Z,11.67
2019-03-13T13:18:59.539Z,6.07
2019-03-13T13:21:28.260Z,5.13
2019-03-13T13:23:57.345Z,4.80
2019-03-13T13:26:26.067Z,11.47
2019-03-13T13:28:54.793Z,20.23
2019-03-13T13:31:23.549Z,8.07
2019-03-13T13:33:52.352Z,7.60
2019-03-13T13:36:21.083Z,4.40
2019-03-13T13:38:50.281Z,3.87
2019-03-13T13:41:18.999Z,5.00
2019-03-13T13:43:47.726Z,7.80
2019-03-13T13:46:27.187Z,9.30
2019-03-13T13:48:55.918Z,10.13
2019-03-13T13:51:24.651Z,15.57
2019-03-13T13:53:55.705Z,10.10
2019-03-13T13:56:23.988Z,5.50
2019-03-13T13:58:52.714Z,4.53
2019-03-13T14:01:22.985Z,3.50
2019-03-13T14:03:51.714Z,8.10
2019-03-13T14:06:20.446Z,6.07
2019-03-13T14:08:49.211Z,10.13
2019-03-13T14:11:17.920Z,8.30
2019-03-13T14:13:46.641Z,6.53
2019-03-13T14:16:15.430Z,4.30
2019-03-13T14:18:44.140Z,4.93
2019-03-13T14:21:12.864Z,9.00
2019-03-13T14:23:41.999Z,11.20
2019-03-13T14:26:10.718Z,7.97
2019-03-13T14:28:39.484Z,8.23
2019-03-13T14:31:08.651Z,9.30
2019-03-13T14:33:37.369Z,9.03
2019-03-13T14:36:06.094Z,9.07
2019-03-13T14:38:34.894Z,6.47
2019-03-13T14:41:03.594Z,8.97
2019-03-13T14:43:32.317Z,6.00
2019-03-13T14:46:01.180Z,7.63
2019-03-13T14:48:31.369Z,12.27
2019-03-13T14:51:00.093Z,9.07
2019-03-13T14:53:28.964Z,8.77
2019-03-13T14:55:57.695Z,10.10
2019-03-13T14:58:26.489Z,8.27
2019-03-13T15:00:55.261Z,7.40
2019-03-13T15:03:23.998Z,8.57
2019-03-13T15:05:52.719Z,7.10
2019-03-13T15:08:21.578Z,6.27
2019-03-13T15:10:50.300Z,7.03
2019-03-13T15:13:19.093Z,6.30
2019-03-13T15:15:47.946Z,10.23
2019-03-13T15:18:16.663Z,20.80
2019-03-13T15:20:45.395Z,10.37
2019-03-13T15:23:14.550Z,6.80
2019-03-13T15:25:43.287Z,10.77
2019-03-13T15:28:12.007Z,7.07
2019-03-13T15:30:41.235Z,10.37
2019-03-13T15:33:09.955Z,8.70
2019-03-13T15:35:38.669Z,8.33
2019-03-13T15:38:07.462Z,18.00
2019-03-13T15:40:36.176Z,21.53
2019-03-13T15:43:04.902Z,15.97
2019-03-13T15:45:37.129Z,15.50
2019-03-13T15:48:05.843Z,8.57
2019-03-13T15:50:34.567Z,11.67
2019-03-13T15:53:03.511Z,9.70
2019-03-13T15:55:32.231Z,7.17
2019-03-13T15:58:00.953Z,13.53
2019-03-13T16:00:31.148Z,10.67
2019-03-13T16:02:59.870Z,9.00
2019-03-13T16:05:28.647Z,9.20
2019-03-13T16:07:57.761Z,15.73
2019-03-13T16:10:26.482Z,8.23
2019-03-13T16:12:56.774Z,7.70
2019-03-13T16:15:31.549Z,9.73
2019-03-13T16:18:00.361Z,8.70
2019-03-13T16:20:29.080Z,9.10
2019-03-13T16:22:59.428Z,11.77
2019-03-13T16:25:28.151Z,8.93
2019-03-13T16:27:56.858Z,9.53
2019-03-13T16:30:28.419Z,11.57
2019-03-13T16:32:57.138Z,8.63
2019-03-13T16:35:26.635Z,9.97
2019-03-13T16:37:55.664Z,20.93
2019-03-13T16:40:24.384Z,16.20
2019-03-13T16:42:53.120Z,14.20
2019-03-13T16:45:22.870Z,9.30
2019-03-13T16:47:51.582Z,8.20
2019-03-13T16:50:22.538Z,7.73
2019-03-13T16:52:51.603Z,8.00
2019-03-13T16:55:21.130Z,14.23
2019-03-13T16:57:49.959Z,7.40
2019-03-13T17:00:20.955Z,14.20
2019-03-13T17:02:50.715Z,8.30
2019-03-13T17:05:19.534Z,11.77
2019-03-13T17:07:50.042Z,10.87
2019-03-13T17:10:21.465Z,10.33
2019-03-13T17:12:50.287Z,10.97
2019-03-13T17:15:23.224Z,10.73
2019-03-13T17:17:52.445Z,11.30
2019-03-13T17:20:29.418Z,10.67
2019-03-13T17:22:58.444Z,11.73
2019-03-13T17:25:27.178Z,8.80
2019-03-13T17:27:56.370Z,13.73
2019-03-13T17:30:29.947Z,10.53
2019-03-13T17:32:59.174Z,11.97
2019-03-13T17:35:28.003Z,12.60
2019-03-13T17:37:56.823Z,11.90
2019-03-13T17:40:27.696Z,13.53
2019-03-13T17:42:56.529Z,15.87
2019-03-13T17:45:25.656Z,13.97
2019-03-13T17:47:54.772Z,13.07
2019-03-13T17:50:26.717Z,14.03
2019-03-13T17:52:55.479Z,11.30
2019-03-13T17:55:25.137Z,12.00
2019-03-13T17:57:54.102Z,11.77
2019-03-13T18:00:32.431Z,11.90
2019-03-13T18:03:01.632Z,11.90
2019-03-13T18:05:30.354Z,15.17
2019-03-13T18:07:59.076Z,13.13
2019-03-13T18:10:27.871Z,13.27
2019-03-13T18:12:56.588Z,12.13
2019-03-13T18:15:25.299Z,12.10
2019-03-13T18:17:54.070Z,12.53
2019-03-13T18:20:24.567Z,13.60
2019-03-13T18:22:53.274Z,12.97
2019-03-13T18:25:22.149Z,13.63
2019-03-13T18:27:51.023Z,13.73
2019-03-13T18:30:34.567Z,13.13
2019-03-13T18:33:03.380Z,16.40
2019-03-13T18:35:32.204Z,13.77
2019-03-13T18:38:00.973Z,23.43
2019-03-13T18:40:29.699Z,20.67
2019-03-13T18:42:58.527Z,20.00
2019-03-13T18:45:32.213Z,20.47
2019-03-13T18:48:00.985Z,21.97
2019-03-13T18:50:30.276Z,14.97
2019-03-13T18:52:59.054Z,13.30
2019-03-13T18:55:35.941Z,14.83
2019-03-13T18:58:05.009Z,12.67
2019-03-13T19:00:37.930Z,12.47
2019-03-13T19:03:08.619Z,14.70
2019-03-13T19:05:38.560Z,12.00
2019-03-13T19:08:07.777Z,12.80
2019-03-13T19:10:36.499Z,9.70
2019-03-13T19:13:06.119Z,11.30
2019-03-13T19:15:34.892Z,11.33
2019-03-13T19:18:03.629Z,11.40
2019-03-13T19:20:33.175Z,13.77
2019-03-13T19:23:01.884Z,11.87
2019-03-13T19:25:30.610Z,11.00
2019-03-13T19:27:59.565Z,12.30
2019-03-13T19:30:37.733Z,11.67
2019-03-13T19:33:07.823Z,11.57
2019-03-13T19:35:36.529Z,9.80
2019-03-13T19:38:10.898Z,10.87
2019-03-13T19:40:39.981Z,10.53
2019-03-13T19:43:08.767Z,9.80
2019-03-13T19:45:47.668Z,11.60
2019-03-13T19:48:16.380Z,9.77
2019-03-13T19:50:45.109Z,10.43
2019-03-13T19:53:14.058Z,12.03
2019-03-13T19:55:42.775Z,9.60
2019-03-13T19:58:14.005Z,10.43
2019-03-13T20:00:42.039Z,11.93
2019-03-13T20:03:13.100Z,9.77
2019-03-13T20:05:45.729Z,8.17
2019-03-13T20:08:13.888Z,9.77
2019-03-13T20:10:45.836Z,8.73
2019-03-13T20:13:14.561Z,10.03
2019-03-13T20:15:43.777Z,9.93
2019-03-13T20:18:12.498Z,10.27
2019-03-13T20:20:41.219Z,9.27
2019-03-13T20:23:12.440Z,10.13
2019-03-13T20:25:41.233Z,8.83
2019-03-13T20:28:10.046Z,9.23
2019-03-13T20:30:39.139Z,13.67
2019-03-13T20:33:07.859Z,9.17
2019-03-13T20:35:37.296Z,12.73
2019-03-13T20:38:06.273Z,14.47
2019-03-13T20:40:34.991Z,15.00
2019-03-13T20:43:03.717Z,14.27
2019-03-13T20:45:32.915Z,16.97
2019-03-13T20:48:01.603Z,12.00
2019-03-13T20:50:37.393Z,24.70
2019-03-13T20:53:00.821Z,15.50
2019-03-13T20:55:29.554Z,13.87
2019-03-13T20:57:58.267Z,17.13
2019-03-13T21:00:28.137Z,10.77
2019-03-13T21:02:57.567Z,17.30
2019-03-13T21:05:26.889Z,15.47
2019-03-13T21:07:55.864Z,19.17
2019-03-13T21:10:24.975Z,14.20
2019-03-13T21:12:53.700Z,23.13
2019-03-13T21:15:26.531Z,17.60
2019-03-13T21:17:55.436Z,12.43
2019-03-13T21:20:24.310Z,13.13
2019-03-13T21:22:53.426Z,13.07
2019-03-13T21:25:24.289Z,12.93
2019-03-13T21:27:53.011Z,12.07
2019-03-13T21:30:26.281Z,11.07
2019-03-13T21:32:55.299Z,11.20
2019-03-13T21:35:24.422Z,10.43
2019-03-13T21:37:53.789Z,11.47
2019-03-13T21:40:24.112Z,11.27
2019-03-13T21:42:54.776Z,12.90
2019-03-13T21:45:23.597Z,12.10
2019-03-13T21:47:52.339Z,23.53
2019-03-13T21:50:21.252Z,23.10
2019-03-13T21:52:50.126Z,36.40
2019-03-13T21:55:19.641Z,52.73
2019-03-13T21:57:51.771Z,20.20
2019-03-13T22:00:24.204Z,12.03
2019-03-13T22:02:53.029Z,9.47
2019-03-13T22:05:26.334Z,14.93
2019-03-13T22:07:53.356Z,15.20
2019-03-13T22:10:22.175Z,12.27
2019-03-13T22:12:51.390Z,9.83
2019-03-13T22:15:21.658Z,30.13
2019-03-13T22:17:50.395Z,130.97
2019-03-13T22:20:19.670Z,283.70
2019-03-13T22:22:48.536Z,601.10
2019-03-13T22:25:20.618Z,688.00
2019-03-13T22:27:49.555Z,150.60
2019-03-13T22:30:23.039Z,105.30
2019-03-13T22:32:52.245Z,152.80
2019-03-13T22:35:20.952Z,34.67
2019-03-13T22:37:50.297Z,16.10
2019-03-13T22:40:19.318Z,15.17
2019-03-13T22:42:48.044Z,107.37
2019-03-13T22:45:18.450Z,112.10
2019-03-13T22:47:48.487Z,42.53
2019-03-13T22:50:21.724Z,105.53
2019-03-13T22:52:50.823Z,176.03
2019-03-13T22:55:19.640Z,43.30
2019-03-13T22:57:48.459Z,60.20
2019-03-13T23:00:47.276Z,80.83
2019-03-13T23:03:17.001Z,432.57
2019-03-13T23:05:45.827Z,297.73
2019-03-13T23:08:14.608Z,303.10
2019-03-13T23:10:43.540Z,259.67
2019-03-13T23:13:12.271Z,153.37
2019-03-13T23:15:41.069Z,94.07
2019-03-13T23:18:09.806Z,79.80
2019-03-13T23:20:38.517Z,53.87
2019-03-13T23:23:07.423Z,46.00
2019-03-13T23:25:36.148Z,45.07
2019-03-13T23:28:05.079Z,33.17
2019-03-13T23:30:34.287Z,47.03
2019-03-13T23:33:03.016Z,67.67
2019-03-13T23:35:31.736Z,87.40
2019-03-13T23:38:00.879Z,101.83
2019-03-13T23:40:29.600Z,77.70
2019-03-13T23:42:58.311Z,58.17
2019-03-13T23:45:27.202Z,60.13
2019-03-13T23:47:55.925Z,53.77
2019-03-13T23:50:24.649Z,50.57
2019-03-13T23:52:53.523Z,64.43
2019-03-13T23:55:22.247Z,33.47
2019-03-13T23:57:50.970Z,28.83
